Gering, NE (69341)

3:17 PM MST on February 01, 2015 (GMT -0700)
RAWS SCOTTS BLUFF NE US | Change Station
CLOSE
Current Station
Personal Weather Station
Location: Gering, NE
Elevation: 4224 ft
Nearby Weather Stations

Elev 4224 ft 41.83 °N, 103.71 °W | Updated 43 minutes ago

Clear
Clear
24 °F
Feels Like 13 °F
N
11
Wind Variable Wind from WSW
Gusts 20.0 mph

Today
High -- | Low -- °F
--% Chance of Precip.
Yesterday
High -- | Low -- °F
Precip. -- in
7:07 AM 5:10 PM
Waxing Gibbous, 96% visible
Pressure 30.35 in
Visibility 10.0 miles
Clouds Few 4100 ft
Windchill 13 °F
Dew Point 9 °F
Humidity 51%
Rainfall 0.05 in
Snow Depth Not available.
UV 1 out of 12
Pollen .10 out of 12
Air Quality Not available.
Flu Activity Not available.
METAR KBFF 012153Z AUTO 06005KT 10SM FEW041 M06/M12 A3022 RMK AO2 SLP278 T10561117

More Conditions Fewer Conditions

Pressure 30.35 in
Visibility 10.0 miles
Clouds Few 4100 ft
Windchill 13 °F
Dew Point 9 °F
Humidity 51%
Rainfall 0.05 in
Snow Depth Not available.
UV 1 out of 12
Pollen .10 out of 12
Air Quality Not available.
Flu Activity Not available.
METAR KBFF 012153Z AUTO 06005KT 10SM FEW041 M06/M12 A3022 RMK AO2 SLP278 T10561117

More Conditions Fewer Conditions

10-Day Weather Forecast

Almanac

Astronomy

Feb. 01, 2015 Rise Set
Actual Time
Civil Twilight
Nautical Twilight
Astronomical Twilight
Moon
Length of Visible Light
Length of Day
Tomorrow will be .
, % of the Moon is Illuminated

Today's Extremes

State Highs State Lows

Community

WunderPhotos

Upload Photos

1,792,563 photos uploaded!

WunderBlogs® & News

Nearby

Air Quality

  Air Quality AQ Index Pollutant
Not available.

Snow Depth

Station Depth Elevation

Earthquake Activity

City Distance Mag. Time & Date
Minimum magnitude displayed is 2.5.

Coastal Water Temperatures

Place Temperature

Nearby Weather Stations